Time;durP1;ratioP1;P1;durP2;ratioP2;P2;SDS_P1;SDS_P2;PMS_P1;PMS_P2;Temp;Humidity;BMP_temperature;BMP_pressure;BME280_temperature;BME280_humidity;BME280_pressure;Samples;Min_cycle;Max_cycle;Signal;HPM_P1;HPM_P2
2022/12/18 00:01:52;;;;;;;8.15;6.18;;;;;;;12.02;100.00;100112.97;5052236;28;20543;-70
2022/12/18 00:04:23;;;;;;;7.68;6.38;;;;;;;12.58;100.00;100233.50;5050986;28;20033;-69
2022/12/18 00:06:49;;;;;;;8.20;5.80;;;;;;;12.48;100.00;100225.31;5051806;28;20036;-71
2022/12/18 00:09:15;;;;;;;9.30;6.22;;;;;;;12.57;100.00;100232.69;5051922;28;20483;-71
2022/12/18 00:11:40;;;;;;;9.32;6.18;;;;;;;12.17;100.00;100150.69;5050040;28;20043;-70
2022/12/18 00:14:06;;;;;;;8.55;6.15;;;;;;;12.48;100.00;100224.50;5051686;28;20029;-71
2022/12/18 00:16:32;;;;;;;8.38;6.43;;;;;;;12.20;100.00;100166.72;5049664;28;20513;-71
2022/12/18 00:18:59;;;;;;;9.68;6.57;;;;;;;12.24;100.00;100167.44;5051410;28;20115;-71
2022/12/18 00:21:26;;;;;;;8.13;6.68;;;;;;;12.57;100.00;100252.25;5051751;28;20021;-71
2022/12/18 00:23:52;;;;;;;7.13;6.35;;;;;;;12.71;100.00;100260.31;5051421;28;20057;-71
2022/12/18 00:26:23;;;;;;;8.60;6.75;;;;;;;12.12;100.00;100185.69;5051129;28;20071;-71
2022/12/18 00:28:50;;;;;;;8.85;6.53;;;;;;;12.11;100.00;100166.19;5050424;28;20119;-71
2022/12/18 00:31:21;;;;;;;10.80;6.93;;;;;;;12.62;100.00;100255.47;5051099;28;20036;-70
2022/12/18 00:33:47;;;;;;;;;;;;;;;12.65;100.00;100280.91;5049421;28;20037;-71
2022/12/18 00:36:21;;;;;;;8.98;6.45;;;;;;;12.12;100.00;100198.44;5050118;28;19913;-72
2022/12/18 00:38:47;;;;;;;7.63;6.50;;;;;;;12.07;100.00;100203.69;5051276;28;20104;-71
2022/12/18 00:42:55;;;;;;;8.40;6.10;;;;;;;12.11;100.00;100224.78;5051189;28;20067;-71
2022/12/18 00:44:00;;;;;;;9.23;5.88;;;;;;;12.10;100.00;100206.13;5049719;28;20032;-72
2022/12/18 00:46:26;;;;;;;6.68;5.50;;;;;;;12.14;100.00;100229.81;5051061;28;20035;-71
2022/12/18 00:48:51;;;;;;;9.70;5.65;;;;;;;12.82;100.00;100332.22;5051343;28;20062;-71
2022/12/18 00:51:16;;;;;;;7.03;6.13;;;;;;;12.30;100.00;100253.94;5033129;28;20033;-71
2022/12/18 00:53:42;;;;;;;6.75;5.88;;;;;;;11.77;100.00;100168.91;5050767;28;20035;-71
2022/12/18 00:56:07;;;;;;;8.13;5.68;;;;;;;12.03;100.00;100222.47;5051014;28;20029;-71
2022/12/18 00:58:36;;;;;;;8.00;5.85;;;;;;;12.53;100.00;100309.34;5051143;28;20028;-72
2022/12/18 01:01:03;;;;;;;7.43;5.80;;;;;;;12.05;100.00;100238.56;5051121;28;20041;-72
2022/12/18 01:03:28;;;;;;;7.30;5.90;;;;;;;12.03;100.00;100232.69;5049495;28;20044;-72
2022/12/18 01:05:54;;;;;;;7.03;6.13;;;;;;;12.54;100.00;100322.03;5051251;28;20073;-72
2022/12/18 01:08:19;;;;;;;7.45;6.00;;;;;;;12.10;100.00;100246.06;5051211;28;20415;-71
2022/12/18 01:10:44;;;;;;;7.88;6.32;;;;;;;12.24;100.00;100307.66;5050621;28;20086;-71
2022/12/18 01:13:10;;;;;;;7.30;5.68;;;;;;;12.59;100.00;100342.31;5050661;28;20117;-71
2022/12/18 01:15:35;;;;;;;6.30;5.70;;;;;;;12.32;100.00;100328.66;5050971;28;20029;-71
2022/12/18 01:18:01;;;;;;;8.48;5.90;;;;;;;11.90;100.00;100259.41;5049289;28;20495;-76
2022/12/18 01:20:26;;;;;;;9.48;5.93;;;;;;;11.80;100.00;100229.97;5032451;28;20478;-71
2022/12/18 01:22:51;;;;;;;6.53;5.57;;;;;;;12.30;100.00;100286.25;5050637;28;20407;-71
2022/12/18 01:25:17;;;;;;;7.65;5.70;;;;;;;12.50;100.00;100299.25;5050499;28;20107;-71
2022/12/18 01:27:43;;;;;;;7.18;5.60;;;;;;;12.53;100.00;100294.88;5050813;28;20033;-73
2022/12/18 01:30:09;;;;;;;8.45;6.10;;;;;;;11.40;100.00;100130.13;5049603;28;20029;-72
2022/12/18 01:32:34;;;;;;;9.23;6.18;;;;;;;12.17;100.00;100268.78;5049444;28;20048;-73
2022/12/18 01:35:00;;;;;;;6.80;6.05;;;;;;;11.71;100.00;100227.69;5049968;28;20560;-72
2022/12/18 01:37:25;;;;;;;8.07;6.18;;;;;;;12.27;100.00;100353.47;5051067;28;20029;-71
2022/12/18 01:39:54;;;;;;;8.13;5.72;;;;;;;12.28;100.00;100339.81;5032500;28;20041;-71
2022/12/18 01:42:19;;;;;;;7.50;5.90;;;;;;;12.08;100.00;100298.81;5050976;28;20033;-71
2022/12/18 01:45:04;;;;;;;9.35;6.63;;;;;;;11.61;100.00;100228.78;5050940;28;20415;-72
2022/12/18 01:47:38;;;;;;;8.60;6.40;;;;;;;11.24;100.00;100189.94;5050789;28;20068;-72
2022/12/18 01:50:09;;;;;;;7.90;6.78;;;;;;;12.06;100.00;100352.34;5050916;28;20032;-73
2022/12/18 01:52:35;;;;;;;10.45;8.73;;;;;;;11.71;100.00;100344.00;5050583;28;20111;-73
2022/12/18 01:55:04;;;;;;;12.38;10.15;;;;;;;11.50;100.00;100347.06;5053604;28;20112;-73
2022/12/18 01:57:30;;;;;;;13.55;10.80;;;;;;;10.48;100.00;100198.69;5054529;28;20033;-73
2022/12/18 02:00:01;;;;;;;13.95;11.70;;;;;;;11.10;100.00;100334.50;5053923;28;20053;-71
2022/12/18 02:02:28;;;;;;;14.68;12.00;;;;;;;11.07;100.00;100332.06;5055207;28;20404;-72
2022/12/18 02:04:54;;;;;;;13.52;10.88;;;;;;;10.25;100.00;100186.56;5054424;28;20040;-72
2022/12/18 02:07:48;;;;;;;13.32;11.32;;;;;;;10.65;100.00;100272.03;5054357;28;20106;-72
2022/12/18 02:10:42;;;;;;;11.35;9.77;;;;;;;11.25;100.00;100365.50;5054167;28;20033;-72
2022/12/18 02:13:38;;;;;;;11.65;9.20;;;;;;;11.27;100.00;100361.22;5054598;28;20036;-72
2022/12/18 02:16:35;;;;;;;10.75;9.30;;;;;;;11.38;100.00;100355.03;5054765;28;20037;-72
2022/12/18 02:19:11;;;;;;;24.15;17.50;;;;;;;10.80;100.00;100264.03;5038523;28;20132;-71
2022/12/18 02:21:45;;;;;;;23.95;16.52;;;;;;;11.31;100.00;100352.63;5053674;28;20483;-72
2022/12/18 02:24:25;;;;;;;15.77;13.60;;;;;;;11.47;100.00;100381.06;5054199;28;20033;-71
2022/12/18 02:26:56;;;;;;;12.45;9.68;;;;;;;10.90;100.00;100296.84;5054200;28;20499;-70
2022/12/18 02:29:27;;;;;;;8.77;7.23;;;;;;;11.37;100.00;100359.28;5054325;28;20040;-71
2022/12/18 02:31:56;;;;;;;11.98;9.30;;;;;;;11.48;100.00;100379.38;5052737;28;20271;-71
2022/12/18 02:34:26;;;;;;;10.55;8.00;;;;;;;11.33;100.00;100357.69;5052748;28;20051;-71
2022/12/18 02:36:54;;;;;;;10.95;7.85;;;;;;;11.12;100.00;100317.50;5053388;28;20056;-71
2022/12/18 02:39:21;;;;;;;11.40;7.95;;;;;;;11.32;100.00;100364.50;5053361;28;20103;-71
2022/12/18 02:41:48;;;;;;;9.57;7.57;;;;;;;10.61;100.00;100268.72;5052724;28;20025;-70
2022/12/18 02:44:14;;;;;;;20.52;14.07;;;;;;;10.72;100.00;100291.34;5053250;28;20033;-71
2022/12/18 02:46:45;;;;;;;16.85;12.68;;;;;;;10.86;100.00;100365.59;5035556;28;20099;-71
2022/12/18 02:49:19;;;;;;;22.38;14.95;;;;;;;10.93;100.00;100387.50;5053278;28;20051;-71
2022/12/18 02:51:53;;;;;;;23.45;17.63;;;;;;;10.95;100.00;100388.31;5053878;28;20036;-71
2022/12/18 02:54:28;;;;;;;15.15;13.55;;;;;;;11.10;100.00;100400.66;5051869;28;20036;-71
2022/12/18 02:57:00;;;;;;;17.30;14.27;;;;;;;10.59;100.00;100302.69;5052981;28;20522;-70
2022/12/18 02:59:38;;;;;;;16.15;14.05;;;;;;;11.21;100.00;100403.81;5051770;28;20037;-71
2022/12/18 03:02:17;;;;;;;10.70;8.70;;;;;;;11.42;100.00;100415.16;5043255;28;20106;-72
2022/12/18 03:04:57;;;;;;;10.32;8.25;;;;;;;10.94;100.00;100328.13;5054479;28;20033;-71
2022/12/18 03:07:36;;;;;;;9.25;6.90;;;;;;;10.83;100.00;100319.91;5066223;28;20503;-71
2022/12/18 03:10:02;;;;;;;9.75;7.00;;;;;;;10.96;100.00;100359.44;5072797;28;20112;-71
2022/12/18 03:12:35;;;;;;;8.48;6.72;;;;;;;11.35;100.00;100422.09;5054845;28;20501;-71
2022/12/18 03:15:16;;;;;;;8.63;6.80;;;;;;;11.37;100.00;100430.53;5054400;28;20056;-71
2022/12/18 03:17:48;;;;;;;8.27;7.30;;;;;;;11.40;100.00;100425.41;5072619;28;20039;-71
2022/12/18 03:20:16;;;;;;;;;;;;;;;11.37;100.00;100425.44;5072570;28;20040;-70
2022/12/18 03:22:46;;;;;;;7.50;6.30;;;;;;;10.76;100.00;100323.47;5072966;28;19913;-71
2022/12/18 03:25:14;;;;;;;8.63;6.15;;;;;;;10.74;100.00;100336.22;5072386;28;20031;-70
2022/12/18 03:27:45;;;;;;;7.57;6.68;;;;;;;11.25;100.00;100429.13;5072884;28;20040;-70
2022/12/18 03:30:13;;;;;;;8.68;6.45;;;;;;;10.62;100.00;100341.56;5072647;28;20036;-71
2022/12/18 03:32:49;;;;;;;9.25;7.07;;;;;;;10.60;100.00;100339.97;5072135;28;20507;-70
2022/12/18 03:35:21;;;;;;;9.38;6.63;;;;;;;11.06;100.00;100443.16;5072523;28;20031;-71
2022/12/18 03:37:46;;;;;;;;;;;;;;;11.22;100.00;100457.22;5073588;28;20024;-71
2022/12/18 03:40:12;;;;;;;11.00;6.72;;;;;;;11.12;100.00;100465.91;5054469;28;20385;-71
2022/12/18 03:42:37;;;;;;;9.50;7.00;;;;;;;10.98;100.00;100465.38;5072202;28;20025;-71
2022/12/18 03:45:20;;;;;;;9.32;7.78;;;;;;;10.37;100.00;100373.47;5072753;28;20028;-70
2022/12/18 03:48:04;;;;;;;9.38;7.25;;;;;;;10.55;100.00;100400.22;5072260;28;20060;-71
2022/12/18 03:50:53;;;;;;;11.30;7.68;;;;;;;11.10;100.00;100490.56;5071698;28;20028;-70
2022/12/18 03:54:03;;;;;;;11.25;8.15;;;;;;;11.26;100.00;100483.44;5072035;28;20110;-72
2022/12/18 03:56:32;;;;;;;9.27;6.97;;;;;;;11.31;100.00;100474.81;5063177;28;20045;-72
2022/12/18 03:59:00;;;;;;;6.47;5.57;;;;;;;10.45;100.00;100328.41;5071852;28;20050;-71
2022/12/18 04:01:33;;;;;;;7.30;5.85;;;;;;;11.14;100.00;100463.34;5072653;28;20052;-72
2022/12/18 04:04:01;;;;;;;7.32;6.28;;;;;;;11.37;100.00;100506.09;5054612;28;20033;-72
2022/12/18 04:06:28;;;;;;;6.88;6.00;;;;;;;11.03;100.00;100463.56;5072795;28;20036;-72
2022/12/18 04:08:54;;;;;;;8.50;6.35;;;;;;;10.83;100.00;100434.38;5072299;28;20028;-72
2022/12/18 04:11:20;;;;;;;7.38;5.95;;;;;;;11.07;100.00;100482.16;5072460;28;20051;-72
2022/12/18 04:13:46;;;;;;;7.75;5.68;;;;;;;11.27;100.00;100520.72;5071919;28;20107;-71
2022/12/18 04:16:12;;;;;;;7.65;6.03;;;;;;;11.22;100.00;100515.75;5051859;28;20147;-71
2022/12/18 04:18:37;;;;;;;8.13;6.05;;;;;;;10.74;100.00;100432.84;5053835;28;20028;-72
2022/12/18 04:21:03;;;;;;;6.95;5.53;;;;;;;11.23;100.00;100512.31;5071400;28;20032;-71
2022/12/18 04:23:28;;;;;;;9.25;6.15;;;;;;;10.99;100.00;100472.13;5070551;28;20036;-70
2022/12/18 04:25:54;;;;;;;7.95;6.60;;;;;;;10.96;100.00;100481.53;5071125;28;20544;-71
2022/12/18 04:28:20;;;;;;;8.57;6.50;;;;;;;11.62;100.00;100489.38;5053583;28;20042;-70
2022/12/18 04:30:45;;;;;;;9.18;6.65;;;;;;;10.70;100.00;100435.47;5071342;28;20085;-72
2022/12/18 04:33:12;;;;;;;6.68;5.80;;;;;;;11.22;100.00;100541.19;5070296;28;20028;-72
2022/12/18 04:35:38;;;;;;;8.63;6.25;;;;;;;10.96;100.00;100506.97;5071693;28;20489;-71
2022/12/18 04:38:06;;;;;;;7.90;6.07;;;;;;;11.24;100.00;100547.09;5072045;28;20033;-72
2022/12/18 04:40:31;;;;;;;8.30;5.20;;;;;;;10.80;100.00;100464.94;5071390;28;20078;-71
2022/12/18 04:42:57;;;;;;;7.78;6.05;;;;;;;11.29;100.00;100582.59;5071159;28;20483;-71
2022/12/18 04:45:22;;;;;;;7.15;4.82;;;;;;;11.42;100.00;100584.03;5071415;28;20025;-71
2022/12/18 04:47:47;;;;;;;5.75;4.63;;;;;;;10.91;100.00;100496.94;5070708;28;20568;-71
2022/12/18 04:50:13;;;;;;;8.25;4.70;;;;;;;11.43;100.00;100578.06;5052742;28;20035;-72
2022/12/18 04:52:38;;;;;;;8.00;5.45;;;;;;;11.37;100.00;100588.38;5053228;28;20051;-72
2022/12/18 04:55:04;;;;;;;8.13;5.60;;;;;;;10.55;100.00;100469.69;5069913;28;20025;-71
2022/12/18 04:57:29;;;;;;;7.03;5.68;;;;;;;11.04;100.00;100576.34;5071395;28;20742;-71
2022/12/18 04:59:55;;;;;;;5.90;5.00;;;;;;;11.01;100.00;100594.25;5053102;28;20064;-70
2022/12/18 05:02:20;;;;;;;7.60;5.93;;;;;;;11.00;100.00;100595.94;5070514;28;20047;-70
2022/12/18 05:04:45;;;;;;;9.70;6.50;;;;;;;10.39;100.00;100509.84;5070911;28;20024;-73
2022/12/18 05:07:11;;;;;;;8.80;6.30;;;;;;;10.60;100.00;100540.81;5071439;28;20086;-71
2022/12/18 05:09:36;;;;;;;7.13;5.95;;;;;;;10.87;100.00;100569.09;5070728;28;20502;-71
2022/12/18 05:12:02;;;;;;;5.40;4.75;;;;;;;10.57;100.00;100497.63;5071188;28;20033;-72
2022/12/18 05:14:29;;;;;;;7.18;4.70;;;;;;;11.25;100.00;100606.47;5071357;28;20063;-72
2022/12/18 05:16:54;;;;;;;7.28;4.70;;;;;;;10.68;100.00;100529.59;5071133;28;20040;-71
2022/12/18 05:19:20;;;;;;;6.05;4.82;;;;;;;11.10;100.00;100609.31;5070565;28;20408;-71
2022/12/18 05:21:45;;;;;;;7.80;4.78;;;;;;;10.75;100.00;100559.16;5070439;28;20033;-71
2022/12/18 05:24:11;;;;;;;5.63;4.53;;;;;;;10.48;100.00;100524.06;5070985;28;20024;-71
2022/12/18 05:26:36;;;;;;;5.45;4.90;;;;;;;11.01;100.00;100627.31;5053200;28;20032;-71
2022/12/18 05:29:02;;;;;;;7.10;5.35;;;;;;;10.58;100.00;100565.41;5069820;28;20029;-71
2022/12/18 05:31:27;;;;;;;6.75;5.57;;;;;;;10.26;100.00;100526.16;5052388;28;20461;-70
2022/12/18 05:33:53;;;;;;;6.65;5.47;;;;;;;10.83;100.00;100636.13;5070199;28;20044;-71
2022/12/18 05:36:19;;;;;;;7.28;5.60;;;;;;;10.33;100.00;100559.94;5070588;28;20052;-70
2022/12/18 05:38:44;;;;;;;7.38;5.53;;;;;;;10.21;100.00;100540.66;5070871;28;20525;-72
2022/12/18 05:41:10;;;;;;;8.73;6.30;;;;;;;10.77;100.00;100625.22;5070915;28;20036;-71
2022/12/18 05:43:37;;;;;;;8.57;6.30;;;;;;;10.94;100.00;100661.34;5052748;28;20410;-72
2022/12/18 05:46:07;;;;;;;7.55;5.43;;;;;;;10.33;100.00;100560.78;5070189;28;20032;-72
2022/12/18 05:48:33;;;;;;;8.10;5.75;;;;;;;10.94;100.00;100654.56;5070866;28;20055;-72
2022/12/18 05:51:04;;;;;;;10.75;8.82;;;;;;;10.77;100.00;100646.41;5070532;28;20032;-71
2022/12/18 05:53:30;;;;;;;13.68;9.98;;;;;;;10.46;100.00;100569.84;5052910;28;20032;-73
2022/12/18 05:56:00;;;;;;;8.10;5.70;;;;;;;11.05;100.00;100687.44;5070308;28;20552;-72
2022/12/18 05:58:25;;;;;;;10.95;7.07;;;;;;;10.48;100.00;100588.44;5071205;28;20032;-73
2022/12/18 06:00:51;;;;;;;10.98;7.60;;;;;;;10.36;100.00;100572.56;5070404;28;20434;-71
2022/12/18 06:03:16;;;;;;;6.40;5.47;;;;;;;11.00;100.00;100699.41;5070391;28;20043;-73
2022/12/18 06:05:44;;;;;;;7.13;5.00;;;;;;;10.25;100.00;100544.81;5070266;28;20082;-70
2022/12/18 06:08:11;;;;;;;6.72;5.18;;;;;;;11.01;100.00;100670.56;5069952;28;20056;-71
2022/12/18 06:10:37;;;;;;;5.03;4.45;;;;;;;10.75;100.00;100639.69;5069723;28;20040;-71
2022/12/18 06:13:02;;;;;;;5.82;4.28;;;;;;;10.60;100.00;100622.97;5070251;28;20424;-70
2022/12/18 06:15:28;;;;;;;5.03;3.70;;;;;;;10.99;100.00;100695.19;5069719;28;20111;-69
2022/12/18 06:17:54;;;;;;;5.65;4.00;;;;;;;11.02;100.00;100707.84;5070213;28;20052;-69
2022/12/18 06:20:19;;;;;;;6.80;4.85;;;;;;;10.45;100.00;100628.34;5070077;28;20037;-70
2022/12/18 06:22:45;;;;;;;7.15;4.55;;;;;;;10.57;100.00;100662.88;5069028;28;20024;-70
2022/12/18 06:25:10;;;;;;;6.28;4.40;;;;;;;10.54;100.00;100652.78;5069661;28;20387;-71
2022/12/18 06:27:36;;;;;;;6.28;4.97;;;;;;;10.87;100.00;100721.69;5069482;28;20032;-72
2022/12/18 06:30:02;;;;;;;7.07;4.75;;;;;;;10.85;100.00;100725.13;5055216;28;20530;-71
2022/12/18 06:32:28;;;;;;;6.30;4.47;;;;;;;9.84;100.00;100576.81;5070060;28;20028;-72
2022/12/18 06:34:55;;;;;;;6.03;4.20;;;;;;;10.74;100.00;100727.00;5068078;28;20396;-71
2022/12/18 06:37:20;;;;;;;4.97;4.30;;;;;;;10.84;100.00;100756.50;5070203;28;20115;-72
2022/12/18 06:39:46;;;;;;;6.30;4.60;;;;;;;10.87;100.00;100743.75;5070261;28;20056;-71
2022/12/18 06:42:11;;;;;;;6.03;4.32;;;;;;;10.77;100.00;100757.47;5065727;28;20039;-71
2022/12/18 06:44:37;;;;;;;5.28;4.28;;;;;;;10.41;100.00;100669.91;5073153;28;20140;-71
2022/12/18 06:47:02;;;;;;;4.18;3.40;;;;;;;10.22;100.00;100650.75;5074006;28;20052;-72
2022/12/18 06:49:28;;;;;;;5.03;3.83;;;;;;;10.76;100.00;100759.19;5073716;28;20024;-72
2022/12/18 06:51:53;;;;;;;5.63;3.83;;;;;;;10.35;100.00;100680.19;5073369;28;20024;-70
2022/12/18 06:54:19;;;;;;;5.45;4.05;;;;;;;10.51;100.00;100722.28;5073120;28;20036;-71
2022/12/18 06:56:47;;;;;;;5.43;4.18;;;;;;;10.33;100.00;100680.22;5062577;28;20029;-71
2022/12/18 06:59:14;;;;;;;5.45;3.80;;;;;;;10.83;100.00;100772.63;5072891;28;20120;-71
2022/12/18 07:01:40;;;;;;;5.07;3.67;;;;;;;10.77;100.00;100773.59;5055322;28;20488;-71
2022/12/18 07:04:06;;;;;;;4.10;3.30;;;;;;;10.58;100.00;100744.19;5054971;28;20037;-71
2022/12/18 07:06:32;;;;;;;3.60;3.20;;;;;;;10.86;100.00;100787.84;5073675;28;20020;-71
2022/12/18 07:08:57;;;;;;;4.45;3.65;;;;;;;10.87;100.00;100807.34;5073031;28;20479;-72
2022/12/18 07:11:23;;;;;;;4.50;3.75;;;;;;;10.25;100.00;100710.00;5055101;28;20039;-71
2022/12/18 07:13:48;;;;;;;4.75;3.60;;;;;;;10.71;100.00;100801.66;5072582;28;20039;-71
2022/12/18 07:16:18;;;;;;;6.68;4.20;;;;;;;10.75;100.00;100810.91;5072798;28;20031;-70
2022/12/18 07:18:44;;;;;;;6.00;4.30;;;;;;;10.75;100.00;100832.97;5055041;28;20034;-70
2022/12/18 07:21:15;;;;;;;5.43;4.53;;;;;;;10.70;100.00;100832.16;5072930;28;20032;-71
2022/12/18 07:23:41;;;;;;;6.97;4.87;;;;;;;10.73;100.00;100843.16;5055272;28;20024;-71
2022/12/18 07:26:09;;;;;;;6.53;5.28;;;;;;;10.28;100.00;100763.28;5054845;28;20843;-71
2022/12/18 07:28:35;;;;;;;5.57;4.50;;;;;;;10.10;100.00;100739.88;5072769;28;20103;-71
2022/12/18 07:31:27;;;;;;;5.60;4.30;;;;;;;10.69;100.00;100850.84;5054494;28;20025;-71
2022/12/18 07:33:53;;;;;;;6.25;4.60;;;;;;;10.61;100.00;100838.25;5062807;28;20103;-71
2022/12/18 07:36:19;;;;;;;5.55;4.32;;;;;;;10.07;100.00;100758.47;5072583;28;20123;-72
2022/12/18 07:38:47;;;;;;;6.15;4.47;;;;;;;9.65;100.00;100703.16;5055122;28;20115;-71
2022/12/18 07:41:13;;;;;;;7.50;5.18;;;;;;;10.64;100.00;100883.13;5072627;28;20055;-70
2022/12/18 07:43:40;;;;;;;10.35;6.03;;;;;;;10.39;100.00;100840.25;5072591;28;20483;-70
2022/12/18 07:46:07;;;;;;;10.68;6.00;;;;;;;10.72;100.00;100889.78;5072614;28;20028;-70
2022/12/18 07:48:32;;;;;;;8.15;5.97;;;;;;;10.19;100.00;100801.53;5054876;28;20052;-72
2022/12/18 07:51:04;;;;;;;9.85;5.82;;;;;;;10.29;100.00;100822.59;5044221;28;20061;-70
2022/12/18 07:53:30;;;;;;;7.50;5.13;;;;;;;12.26;100.00;100896.53;5033352;28;20227;-72
2022/12/18 07:56:00;;;;;;;8.63;5.82;;;;;;;10.45;100.00;100808.81;5052784;28;20116;-71
2022/12/18 07:58:26;;;;;;;10.73;6.22;;;;;;;11.31;100.00;100911.78;5031708;28;20120;-68
2022/12/18 08:00:52;;;;;;;10.23;6.28;;;;;;;10.76;100.00;100904.13;5052186;28;20114;-71
2022/12/18 08:03:18;;;;;;;8.85;6.18;;;;;;;10.48;100.00;100838.44;5052837;28;20108;-74
2022/12/18 08:05:43;;;;;;;11.48;6.25;;;;;;;10.92;100.00;100930.19;5052727;28;20035;-73
2022/12/18 08:08:10;;;;;;;8.52;6.45;;;;;;;10.80;100.00;100923.59;5052202;28;20035;-75
2022/12/18 08:10:37;;;;;;;7.57;6.22;;;;;;;10.08;100.00;100813.50;5068933;28;20085;-75
2022/12/18 08:13:03;;;;;;;7.82;5.55;;;;;;;10.32;100.00;100848.81;5072135;28;20043;-75
2022/12/18 08:15:28;;;;;;;7.72;6.22;;;;;;;10.46;100.00;100866.41;5054545;28;20123;-76
2022/12/18 08:17:56;;;;;;;8.50;6.00;;;;;;;10.88;100.00;100943.81;5072875;28;20166;-75
2022/12/18 08:20:22;;;;;;;8.15;6.30;;;;;;;9.99;100.00;100772.13;5072217;28;20475;-72
2022/12/18 08:22:47;;;;;;;8.52;6.28;;;;;;;10.85;100.00;100941.34;5072639;28;20025;-76
2022/12/18 08:25:12;;;;;;;7.63;5.60;;;;;;;10.86;100.00;100954.03;5071956;28;20028;-76
2022/12/18 08:27:38;;;;;;;8.30;6.25;;;;;;;10.36;100.00;100842.81;5071997;28;20115;-76
2022/12/18 08:30:04;;;;;;;10.77;6.55;;;;;;;9.98;100.00;100781.44;5072580;28;20380;-71
2022/12/18 08:32:30;;;;;;;8.23;6.70;;;;;;;10.94;100.00;100949.69;5071994;28;20449;-72
2022/12/18 08:34:55;;;;;;;10.00;6.63;;;;;;;10.91;100.00;100870.88;5071298;28;20034;-72
2022/12/18 08:37:21;;;;;;;11.50;7.40;;;;;;;10.56;100.00;100888.31;5071904;28;20038;-71
2022/12/18 08:39:49;;;;;;;10.80;7.13;;;;;;;11.10;100.00;100884.13;5071128;28;20071;-72
2022/12/18 08:44:58;;;;;;;9.35;6.53;;;;;;;10.43;100.00;100891.88;5069290;28;20039;-69
2022/12/18 08:47:25;;;;;;;13.57;10.95;;;;;;;10.42;100.00;100880.00;5059717;28;20028;-69
2022/12/18 08:49:51;;;;;;;12.75;8.10;;;;;;;11.02;100.00;100977.56;5070836;28;20090;-68
2022/12/18 08:52:16;;;;;;;9.88;7.35;;;;;;;10.56;100.00;100967.13;5070522;28;20020;-69
2022/12/18 08:54:42;;;;;;;11.27;7.55;;;;;;;10.02;100.00;100899.13;5069324;28;20036;-68
2022/12/18 08:57:07;;;;;;;9.75;6.70;;;;;;;10.50;100.00;100968.91;5070807;28;20024;-68
2022/12/18 08:59:32;;;;;;;9.88;6.25;;;;;;;10.02;100.00;100878.81;5052029;28;20089;-68
2022/12/18 09:01:58;;;;;;;9.52;7.05;;;;;;;9.79;100.00;100871.41;5038991;28;20111;-68
2022/12/18 09:04:23;;;;;;;12.15;7.30;;;;;;;9.80;100.00;100883.28;5045266;28;20488;-68
2022/12/18 09:06:49;;;;;;;10.73;7.60;;;;;;;9.89;100.00;100884.84;5039020;28;20554;-68
2022/12/18 09:09:14;;;;;;;10.73;7.20;;;;;;;10.31;100.00;100965.72;5030414;28;20037;-68
2022/12/18 09:11:39;;;;;;;9.15;6.50;;;;;;;9.75;100.00;100874.84;5050316;28;20241;-69
2022/12/18 09:14:05;;;;;;;11.27;7.65;;;;;;;9.95;100.00;100928.81;5050349;28;20037;-71
2022/12/18 09:16:31;;;;;;;9.77;6.85;;;;;;;9.83;100.00;100900.16;5045235;28;20514;-70
2022/12/18 09:19:01;;;;;;;9.48;7.00;;;;;;;10.07;100.00;100979.50;5046765;28;20032;-72
2022/12/18 09:21:32;;;;;;;12.30;7.07;;;;;;;10.36;100.00;100964.81;5033215;28;20032;-74
2022/12/18 09:23:58;;;;;;;12.15;6.95;;;;;;;10.60;100.00;100967.97;5033420;28;20090;-74
2022/12/18 09:26:24;;;;;;;12.60;8.32;;;;;;;10.11;100.00;100912.59;5051002;28;20544;-73
2022/12/18 09:28:50;;;;;;;13.10;10.55;;;;;;;10.21;100.00;100949.75;5050281;28;20052;-71
2022/12/18 09:31:18;;;;;;;12.20;10.45;;;;;;;9.88;100.00;100911.97;5050917;28;20095;-73
2022/12/18 09:33:45;;;;;;;13.85;11.63;;;;;;;9.96;100.00;100927.13;5050413;28;20118;-73
2022/12/18 09:36:12;;;;;;;17.45;13.75;;;;;;;10.30;100.00;100990.31;5051139;28;20025;-69
2022/12/18 09:38:38;;;;;;;22.00;16.58;;;;;;;10.31;100.00;100991.16;5050473;28;20050;-73
2022/12/18 09:41:35;;;;;;;22.83;17.13;;;;;;;10.50;100.00;101010.41;5051594;28;20117;-77
2022/12/18 09:44:05;;;;;;;21.58;15.95;;;;;;;10.31;100.00;100933.53;5051127;28;20045;-77
2022/12/18 09:46:38;;;;;;;25.20;19.17;;;;;;;10.60;100.00;101008.63;5051447;28;20201;-75
2022/12/18 09:49:11;;;;;;;15.93;11.52;;;;;;;10.49;100.00;101001.13;5052271;28;20033;-76
2022/12/18 09:51:42;;;;;;;14.65;10.65;;;;;;;9.70;100.00;100913.84;5030271;28;20033;-74
2022/12/18 09:54:14;;;;;;;13.18;10.60;;;;;;;10.22;100.00;101007.31;5031927;28;20037;-78
2022/12/18 09:56:42;;;;;;;14.55;10.88;;;;;;;10.49;100.00;101011.28;5032302;28;20037;-75
2022/12/18 09:59:49;;;;;;;14.48;9.50;;;;;;;10.51;100.00;101007.03;5031335;28;20042;-79
2022/12/18 10:02:15;;;;;;;12.43;8.98;;;;;;;10.42;100.00;101010.50;5025603;28;20072;-79
2022/12/18 10:04:41;;;;;;;14.98;11.13;;;;;;;10.58;100.00;101005.28;5047759;28;20136;-75
2022/12/18 10:07:22;;;;;;;21.42;15.05;;;;;;;10.78;100.00;101026.19;5061388;28;20071;-81
2022/12/18 10:09:51;;;;;;;12.15;8.43;;;;;;;10.60;100.00;101028.97;5064400;28;20051;-80
2022/12/18 10:12:41;;;;;;;26.85;19.73;;;;;;;10.37;100.00;100925.84;5054861;28;20093;-79
2022/12/18 10:15:27;;;;;;;43.92;28.63;;;;;;;10.86;100.00;101016.78;5041943;28;20041;-74
2022/12/18 10:18:23;;;;;;;46.45;29.15;;;;;;;10.29;100.00;100916.63;5074670;28;20487;-74
2022/12/18 10:20:58;;;;;;;37.17;26.88;;;;;;;10.76;100.00;101003.34;5057492;28;20029;-73
2022/12/18 10:23:33;;;;;;;30.00;19.35;;;;;;;10.58;100.00;100931.53;5075373;28;20060;-75
2022/12/18 10:26:07;;;;;;;24.23;17.25;;;;;;;11.04;100.00;101012.31;5074219;28;20032;-77
2022/12/18 10:28:36;;;;;;;31.38;20.63;;;;;;;10.93;100.00;101026.03;5075029;28;20033;-76
2022/12/18 10:31:02;;;;;;;33.67;24.38;;;;;;;10.12;100.00;100929.50;5074580;28;20066;-76
2022/12/18 10:33:32;;;;;;;24.67;19.85;;;;;;;9.66;100.00;100862.25;5078569;28;20410;-74
2022/12/18 10:35:58;;;;;;;29.88;20.75;;;;;;;10.48;100.00;101029.13;5074303;28;20042;-73
2022/12/18 10:38:25;;;;;;;20.08;14.82;;;;;;;10.36;100.00;101019.88;5056453;28;20558;-75
2022/12/18 10:40:53;;;;;;;17.17;13.20;;;;;;;10.60;100.00;101042.50;5074758;28;20029;-72
2022/12/18 10:43:25;;;;;;;17.67;12.50;;;;;;;10.10;100.00;100948.19;5074022;28;20085;-71
2022/12/18 10:46:11;;;;;;;17.67;11.73;;;;;;;10.13;100.00;100941.38;5055983;28;20064;-71
2022/12/18 10:48:46;;;;;;;31.60;20.05;;;;;;;10.50;100.00;101030.75;5073739;28;20789;-72
2022/12/18 10:51:27;;;;;;;21.27;15.77;;;;;;;10.09;100.00;100946.44;5055738;28;20546;-70
2022/12/18 10:54:01;;;;;;;18.08;13.45;;;;;;;10.51;100.00;101052.78;5071547;28;20459;-72
2022/12/18 10:56:28;;;;;;;25.50;18.80;;;;;;;9.63;100.00;100924.91;5064666;28;20028;-73
2022/12/18 10:59:00;;;;;;;34.00;27.33;;;;;;;10.61;100.00;101061.16;5072971;28;20040;-73
2022/12/18 11:01:26;;;;;;;74.18;66.32;;;;;;;9.96;100.00;100947.44;5073797;28;20060;-73
2022/12/18 11:03:54;;;;;;;69.75;62.38;;;;;;;10.40;100.00;101057.13;5073162;28;20491;-73
2022/12/18 11:06:24;;;;;;;43.05;38.35;;;;;;;10.36;100.00;101056.31;5030456;28;20048;-74
2022/12/18 11:09:05;;;;;;;33.97;28.52;;;;;;;10.53;100.00;101065.47;5033820;28;20033;-73
2022/12/18 11:11:32;;;;;;;41.08;34.00;;;;;;;9.86;100.00;100973.78;5062984;28;20507;-74
2022/12/18 11:14:18;;;;;;;23.13;18.02;;;;;;;9.82;100.00;100936.56;5069290;28;20037;-72
2022/12/18 11:16:47;;;;;;;35.33;23.33;;;;;;;10.20;100.00;101026.00;5042260;28;20036;-73
2022/12/18 11:19:35;;;;;;;22.23;15.80;;;;;;;10.39;100.00;101050.38;5053140;28;20056;-75
2022/12/18 11:22:03;;;;;;;37.65;27.75;;;;;;;10.45;100.00;101058.78;5053696;28;20036;-75
2022/12/18 11:24:34;;;;;;;33.50;24.30;;;;;;;10.40;100.00;101027.47;5063308;28;20035;-70
2022/12/18 11:27:03;;;;;;;29.50;23.80;;;;;;;10.29;100.00;101054.72;5071567;28;20038;-71